Time,TemperatureF,DewpointF,PressureIn,WindDirection,WindDirectionDegrees,WindSpeedMPH,WindSpeedGustMPH,Humidity,HourlyPrecipIn,Conditions,Clouds,dailyrainin,SolarRadiationWatts/m^2,SoftwareType,DateUTC
2013-07-31 00:02:00,75.0,66.0,-100.00,SSW,210,1.0,5.0,74,0.00,,,0.00,100.000000,,2013-07-31 00:02:00,
2013-07-31 00:11:00,74.0,65.0,-100.00,NNE,21,4.0,6.0,73,0.00,,,0.00,61.000000,,2013-07-31 00:11:00,
2013-07-31 00:43:00,74.0,65.0,-100.00,NNE,21,4.0,6.0,73,0.00,,,0.00,61.000000,,2013-07-31 00:43:00,
2013-07-31 00:53:00,74.0,65.0,-100.00,NNE,21,4.0,6.0,73,0.00,,,0.00,61.000000,,2013-07-31 00:53:00,
2013-07-31 01:02:00,74.0,65.0,-100.00,NNE,21,4.0,6.0,73,0.00,,,0.00,61.000000,,2013-07-31 01:02:00,
2013-07-31 01:11:00,71.0,66.0,-100.00,NE,43,2.0,5.0,84,0.00,,,0.00,48.000000,,2013-07-31 01:11:00,
2013-07-31 01:32:00,71.0,66.0,-100.00,NE,43,2.0,5.0,84,0.00,,,0.00,48.000000,,2013-07-31 01:32:00,
2013-07-31 01:43:00,71.0,66.0,-100.00,NE,43,2.0,5.0,84,0.00,,,0.00,48.000000,,2013-07-31 01:43:00,
2013-07-31 01:52:00,71.0,66.0,-100.00,NE,43,2.0,5.0,84,0.00,,,0.00,48.000000,,2013-07-31 01:52:00,
2013-07-31 02:02:00,71.0,66.0,-100.00,NE,43,2.0,5.0,84,0.00,,,0.00,48.000000,,2013-07-31 02:02:00,
2013-07-31 02:11:00,68.0,64.0,-100.00,NE,47,4.0,6.0,88,0.00,,,0.00,5.000000,,2013-07-31 02:11:00,
2013-07-31 02:32:00,68.0,64.0,-100.00,NE,47,4.0,6.0,88,0.00,,,0.00,5.000000,,2013-07-31 02:32:00,
2013-07-31 02:43:00,68.0,64.0,-100.00,NE,47,4.0,6.0,88,0.00,,,0.00,5.000000,,2013-07-31 02:43:00,
2013-07-31 02:52:00,68.0,64.0,-100.00,NE,47,4.0,6.0,88,0.00,,,0.00,5.000000,,2013-07-31 02:52:00,
2013-07-31 03:02:00,68.0,64.0,-100.00,NE,47,4.0,6.0,88,0.00,,,0.00,5.000000,,2013-07-31 03:02:00,
2013-07-31 03:11:00,64.0,62.0,-100.00,North,11,1.0,6.0,93,0.00,,,0.00,0.000000,,2013-07-31 03:11:00,
2013-07-31 04:02:00,64.0,62.0,-100.00,North,11,1.0,6.0,93,0.00,,,0.00,0.000000,,2013-07-31 04:02:00,
2013-07-31 04:11:00,63.0,62.0,-100.00,NNE,24,2.0,7.0,98,0.00,,,0.00,0.000000,,2013-07-31 04:11:00,
2013-07-31 04:32:00,63.0,62.0,-100.00,NNE,24,2.0,7.0,98,0.00,,,0.00,0.000000,,2013-07-31 04:32:00,
2013-07-31 04:42:00,63.0,62.0,-100.00,NNE,24,2.0,7.0,98,0.00,,,0.00,0.000000,,2013-07-31 04:42:00,
2013-07-31 04:52:00,63.0,62.0,-100.00,NNE,24,2.0,7.0,98,0.00,,,0.00,0.000000,,2013-07-31 04:52:00,
2013-07-31 05:02:00,63.0,62.0,-100.00,NNE,24,2.0,7.0,98,0.00,,,0.00,0.000000,,2013-07-31 05:02:00,
2013-07-31 05:11:00,63.0,63.0,-100.00,ENE,61,4.0,6.0,100,0.00,,,0.00,0.000000,,2013-07-31 05:11:00,
2013-07-31 05:32:00,63.0,63.0,-100.00,ENE,61,4.0,6.0,100,0.00,,,0.00,0.000000,,2013-07-31 05:32:00,
2013-07-31 05:43:00,63.0,63.0,-100.00,ENE,61,4.0,6.0,100,0.00,,,0.00,0.000000,,2013-07-31 05:43:00,
2013-07-31 05:52:00,63.0,63.0,-100.00,ENE,61,4.0,6.0,100,0.00,,,0.00,0.000000,,2013-07-31 05:52:00,
2013-07-31 06:02:00,63.0,63.0,-100.00,ENE,61,4.0,6.0,100,0.00,,,0.00,0.000000,,2013-07-31 06:02:00,
2013-07-31 06:11:00,60.0,60.0,-100.00,NE,36,1.0,5.0,100,0.00,,,0.00,0.000000,,2013-07-31 06:11:00,
2013-07-31 06:32:00,60.0,60.0,-100.00,NE,36,1.0,5.0,100,0.00,,,0.00,0.000000,,2013-07-31 06:32:00,
2013-07-31 06:43:00,60.0,60.0,-100.00,NE,36,1.0,5.0,100,0.00,,,0.00,0.000000,,2013-07-31 06:43:00,
2013-07-31 06:53:00,60.0,60.0,-100.00,NE,36,1.0,5.0,100,0.00,,,0.00,0.000000,,2013-07-31 06:53:00,
2013-07-31 07:02:00,60.0,60.0,-100.00,NE,36,1.0,5.0,100,0.00,,,0.00,0.000000,,2013-07-31 07:02:00,
2013-07-31 07:11:00,59.0,59.0,-100.00,NW,304,1.0,3.0,100,0.00,,,0.00,0.000000,,2013-07-31 07:11:00,
2013-07-31 07:43:00,59.0,59.0,-100.00,NW,304,1.0,3.0,100,0.00,,,0.00,0.000000,,2013-07-31 07:43:00,
2013-07-31 07:52:00,59.0,59.0,-100.00,NW,304,1.0,3.0,100,0.00,,,0.00,0.000000,,2013-07-31 07:52:00,
2013-07-31 08:02:00,59.0,59.0,-100.00,NW,304,1.0,3.0,100,0.00,,,0.00,0.000000,,2013-07-31 08:02:00,
2013-07-31 08:11:00,61.0,61.0,-100.00,NNE,23,1.0,3.0,100,0.00,,,0.00,0.000000,,2013-07-31 08:11:00,
2013-07-31 08:42:00,61.0,61.0,-100.00,NNE,23,1.0,3.0,100,0.00,,,0.00,0.000000,,2013-07-31 08:42:00,
2013-07-31 08:53:00,61.0,61.0,-100.00,NNE,23,1.0,3.0,100,0.00,,,0.00,0.000000,,2013-07-31 08:53:00,
2013-07-31 09:02:00,61.0,61.0,-100.00,NNE,23,1.0,3.0,100,0.00,,,0.00,0.000000,,2013-07-31 09:02:00,
2013-07-31 09:11:00,61.0,61.0,-100.00,North,11,1.0,5.0,100,0.00,,,0.00,0.000000,,2013-07-31 09:11:00,
2013-07-31 09:33:00,61.0,61.0,-100.00,North,11,1.0,5.0,100,0.00,,,0.00,0.000000,,2013-07-31 09:33:00,
2013-07-31 09:44:00,61.0,61.0,-100.00,North,11,1.0,5.0,100,0.00,,,0.00,0.000000,,2013-07-31 09:44:00,
2013-07-31 09:52:00,61.0,61.0,-100.00,North,11,1.0,5.0,100,0.00,,,0.00,0.000000,,2013-07-31 09:52:00,
2013-07-31 10:02:00,61.0,61.0,-100.00,North,11,1.0,5.0,100,0.00,,,0.00,0.000000,,2013-07-31 10:02:00,
2013-07-31 10:11:00,62.0,62.0,-100.00,NE,47,4.0,6.0,100,0.00,,,0.00,0.000000,,2013-07-31 10:11:00,
2013-07-31 10:32:00,62.0,62.0,-100.00,NE,47,4.0,6.0,100,0.00,,,0.00,0.000000,,2013-07-31 10:32:00,
2013-07-31 10:44:00,62.0,62.0,-100.00,NE,47,4.0,6.0,100,0.00,,,0.00,0.000000,,2013-07-31 10:44:00,
2013-07-31 10:52:00,62.0,62.0,-100.00,NE,47,4.0,6.0,100,0.00,,,0.00,0.000000,,2013-07-31 10:52:00,
2013-07-31 11:03:00,62.0,62.0,-100.00,NE,47,4.0,6.0,100,0.00,,,0.00,0.000000,,2013-07-31 11:03:00,
2013-07-31 11:11:00,62.0,62.0,-100.00,NNW,330,1.0,7.0,100,0.00,,,0.00,0.000000,,2013-07-31 11:11:00,
2013-07-31 11:33:00,62.0,62.0,-100.00,NNW,330,1.0,7.0,100,0.00,,,0.00,0.000000,,2013-07-31 11:33:00,
2013-07-31 11:43:00,62.0,62.0,-100.00,NNW,330,1.0,7.0,100,0.00,,,0.00,0.000000,,2013-07-31 11:43:00,
2013-07-31 11:53:00,62.0,62.0,-100.00,NNW,330,1.0,7.0,100,0.00,,,0.00,0.000000,,2013-07-31 11:53:00,
2013-07-31 12:02:00,62.0,62.0,-100.00,NNW,330,1.0,7.0,100,0.00,,,0.00,0.000000,,2013-07-31 12:02:00,
2013-07-31 12:11:00,60.0,60.0,-100.00,East,80,0.0,2.0,100,0.00,,,0.00,19.000000,,2013-07-31 12:11:00,
2013-07-31 12:43:00,60.0,60.0,-100.00,East,80,0.0,2.0,100,0.00,,,0.00,19.000000,,2013-07-31 12:43:00,
2013-07-31 12:53:00,60.0,60.0,-100.00,East,80,0.0,2.0,100,0.00,,,0.00,19.000000,,2013-07-31 12:53:00,
2013-07-31 13:02:00,60.0,60.0,-100.00,East,80,0.0,2.0,100,0.00,,,0.00,19.000000,,2013-07-31 13:02:00,
2013-07-31 13:11:00,62.0,62.0,-100.00,WSW,245,1.0,2.0,100,0.00,,,0.00,64.000000,,2013-07-31 13:11:00,
2013-07-31 13:43:00,62.0,62.0,-100.00,WSW,245,1.0,2.0,100,0.00,,,0.00,64.000000,,2013-07-31 13:43:00,
2013-07-31 13:53:00,62.0,62.0,-100.00,WSW,245,1.0,2.0,100,0.00,,,0.00,64.000000,,2013-07-31 13:53:00,
2013-07-31 14:02:00,62.0,62.0,-100.00,WSW,245,1.0,2.0,100,0.00,,,0.00,64.000000,,2013-07-31 14:02:00,
2013-07-31 14:11:00,65.0,64.0,-100.00,SW,228,2.0,3.0,97,0.00,,,0.00,129.000000,,2013-07-31 14:11:00,
2013-07-31 14:43:00,65.0,64.0,-100.00,SW,228,2.0,3.0,97,0.00,,,0.00,129.000000,,2013-07-31 14:43:00,
2013-07-31 14:53:00,65.0,64.0,-100.00,SW,228,2.0,3.0,97,0.00,,,0.00,129.000000,,2013-07-31 14:53:00,
2013-07-31 15:02:00,65.0,64.0,-100.00,SW,228,2.0,3.0,97,0.00,,,0.00,129.000000,,2013-07-31 15:02:00,
2013-07-31 15:11:00,75.0,67.0,-100.00,NNW,346,5.0,8.0,75,0.00,,,0.00,379.000000,,2013-07-31 15:11:00,
2013-07-31 15:44:00,75.0,67.0,-100.00,NNW,346,5.0,8.0,75,0.00,,,0.00,379.000000,,2013-07-31 15:44:00,
2013-07-31 15:53:00,75.0,67.0,-100.00,NNW,346,5.0,8.0,75,0.00,,,0.00,379.000000,,2013-07-31 15:53:00,
2013-07-31 16:02:00,75.0,67.0,-100.00,NNW,346,5.0,8.0,75,0.00,,,0.00,379.000000,,2013-07-31 16:02:00,
2013-07-31 16:11:00,78.0,67.0,-100.00,North,357,7.0,14.0,70,0.00,,,0.00,550.000000,,2013-07-31 16:11:00,
2013-07-31 16:44:00,78.0,67.0,-100.00,North,357,7.0,14.0,70,0.00,,,0.00,550.000000,,2013-07-31 16:44:00,
2013-07-31 16:52:00,78.0,67.0,-100.00,North,357,7.0,14.0,70,0.00,,,0.00,550.000000,,2013-07-31 16:52:00,
2013-07-31 17:02:00,78.0,67.0,-100.00,North,357,7.0,14.0,70,0.00,,,0.00,550.000000,,2013-07-31 17:02:00,
2013-07-31 17:11:00,79.0,64.0,-100.00,NNE,12,6.0,13.0,60,0.00,,,0.00,663.000000,,2013-07-31 17:11:00,
2013-07-31 17:43:00,79.0,64.0,-100.00,NNE,12,6.0,13.0,60,0.00,,,0.00,663.000000,,2013-07-31 17:43:00,
2013-07-31 17:53:00,79.0,64.0,-100.00,NNE,12,6.0,13.0,60,0.00,,,0.00,663.000000,,2013-07-31 17:53:00,
2013-07-31 18:02:00,79.0,64.0,-100.00,NNE,12,6.0,13.0,60,0.00,,,0.00,663.000000,,2013-07-31 18:02:00,
2013-07-31 18:11:00,81.0,63.0,-100.00,NW,315,4.0,12.0,54,0.00,,,0.00,709.000000,,2013-07-31 18:11:00,
2013-07-31 18:43:00,81.0,63.0,-100.00,NW,315,4.0,12.0,54,0.00,,,0.00,709.000000,,2013-07-31 18:43:00,
2013-07-31 18:52:00,81.0,63.0,-100.00,NW,315,4.0,12.0,54,0.00,,,0.00,709.000000,,2013-07-31 18:52:00,
2013-07-31 19:02:00,81.0,63.0,-100.00,NW,315,4.0,12.0,54,0.00,,,0.00,709.000000,,2013-07-31 19:02:00,
2013-07-31 19:11:00,83.0,61.0,-100.00,NW,314,6.0,12.0,48,0.00,,,0.00,682.000000,,2013-07-31 19:11:00,
2013-07-31 19:33:00,83.0,61.0,-100.00,NW,314,6.0,12.0,48,0.00,,,0.00,682.000000,,2013-07-31 19:33:00,
2013-07-31 19:43:00,83.0,61.0,-100.00,NW,314,6.0,12.0,48,0.00,,,0.00,682.000000,,2013-07-31 19:43:00,
2013-07-31 19:53:00,83.0,61.0,-100.00,NW,314,6.0,12.0,48,0.00,,,0.00,682.000000,,2013-07-31 19:53:00,
2013-07-31 20:02:00,83.0,61.0,-100.00,NW,314,6.0,12.0,48,0.00,,,0.00,682.000000,,2013-07-31 20:02:00,
2013-07-31 20:11:00,85.0,61.0,-100.00,NNW,338,5.0,12.0,45,0.00,,,0.00,770.000000,,2013-07-31 20:11:00,
2013-07-31 20:43:00,85.0,61.0,-100.00,NNW,338,5.0,12.0,45,0.00,,,0.00,770.000000,,2013-07-31 20:43:00,
2013-07-31 20:53:00,85.0,61.0,-100.00,NNW,338,5.0,12.0,45,0.00,,,0.00,770.000000,,2013-07-31 20:53:00,
2013-07-31 21:02:00,85.0,61.0,-100.00,NNW,338,5.0,12.0,45,0.00,,,0.00,770.000000,,2013-07-31 21:02:00,
2013-07-31 21:11:00,83.0,61.0,-100.00,NNW,331,6.0,11.0,47,0.00,,,0.00,678.000000,,2013-07-31 21:11:00,
2013-07-31 21:43:00,83.0,61.0,-100.00,NNW,331,6.0,11.0,47,0.00,,,0.00,678.000000,,2013-07-31 21:43:00,
2013-07-31 21:53:00,83.0,61.0,-100.00,NNW,331,6.0,11.0,47,0.00,,,0.00,678.000000,,2013-07-31 21:53:00,
2013-07-31 22:02:00,83.0,61.0,-100.00,NNW,331,6.0,11.0,47,0.00,,,0.00,678.000000,,2013-07-31 22:02:00,
2013-07-31 22:11:00,84.0,60.0,-100.00,NNW,344,6.0,10.0,44,0.00,,,0.00,606.000000,,2013-07-31 22:11:00,
2013-07-31 22:33:00,84.0,60.0,-100.00,NNW,344,6.0,10.0,44,0.00,,,0.00,606.000000,,2013-07-31 22:33:00,
2013-07-31 22:43:00,84.0,60.0,-100.00,NNW,344,6.0,10.0,44,0.00,,,0.00,606.000000,,2013-07-31 22:43:00,
2013-07-31 22:53:00,84.0,60.0,-100.00,NNW,344,6.0,10.0,44,0.00,,,0.00,606.000000,,2013-07-31 22:53:00,
2013-07-31 23:02:00,84.0,60.0,-100.00,NNW,344,6.0,10.0,44,0.00,,,0.00,606.000000,,2013-07-31 23:02:00,
2013-07-31 23:11:00,83.0,58.0,-100.00,North,6,6.0,12.0,42,0.00,,,0.00,483.000000,,2013-07-31 23:11:00,
2013-07-31 23:32:00,83.0,58.0,-100.00,North,6,6.0,12.0,42,0.00,,,0.00,483.000000,,2013-07-31 23:32:00,
2013-07-31 23:42:00,83.0,58.0,-100.00,North,6,6.0,12.0,42,0.00,,,0.00,483.000000,,2013-07-31 23:42:00,
2013-07-31 23:52:00,83.0,58.0,-100.00,North,6,6.0,12.0,42,0.00,,,0.00,483.000000,,2013-07-31 23:52:00,